createdAt,value
2023-01-15T00:00:29.639Z,17.90
2023-01-15T00:02:57.942Z,21.67
2023-01-15T00:05:27.809Z,15.30
2023-01-15T00:07:56.390Z,19.25
2023-01-15T00:10:24.747Z,16.20
2023-01-15T00:12:53.266Z,14.82
2023-01-15T00:15:22.304Z,14.40
2023-01-15T00:17:50.831Z,16.25
2023-01-15T00:20:19.245Z,17.70
2023-01-15T00:22:49.083Z,15.60
2023-01-15T00:25:36.047Z,16.77
2023-01-15T00:30:32.291Z,18.90
2023-01-15T00:33:00.863Z,16.65
2023-01-15T00:35:29.249Z,15.73
2023-01-15T00:38:00.515Z,13.98
2023-01-15T00:40:28.849Z,14.02
2023-01-15T00:42:56.922Z,14.05
2023-01-15T00:45:25.398Z,15.70
2023-01-15T00:47:53.895Z,14.50
2023-01-15T00:50:22.361Z,13.60
2023-01-15T00:52:50.703Z,12.73
2023-01-15T00:55:20.743Z,11.48
2023-01-15T00:57:48.908Z,13.15
2023-01-15T01:00:17.730Z,12.27
2023-01-15T01:02:45.995Z,14.23
2023-01-15T01:05:14.279Z,11.85
2023-01-15T01:07:43.390Z,12.77
2023-01-15T01:10:13.970Z,13.15
2023-01-15T01:12:43.884Z,15.70
2023-01-15T01:15:12.671Z,13.98
2023-01-15T01:17:40.958Z,11.48
2023-01-15T01:20:12.921Z,11.98
2023-01-15T01:22:41.772Z,13.80
2023-01-15T01:25:11.272Z,10.20
2023-01-15T01:27:39.420Z,9.85
2023-01-15T01:30:10.870Z,14.98
2023-01-15T01:32:39.629Z,13.98
2023-01-15T01:35:08.221Z,10.68
2023-01-15T01:37:36.516Z,10.98
2023-01-15T01:40:05.546Z,10.13
2023-01-15T01:42:33.888Z,13.60
2023-01-15T01:45:06.449Z,11.05
2023-01-15T01:47:37.273Z,10.85
2023-01-15T01:50:09.869Z,10.02
2023-01-15T01:52:43.617Z,9.73
2023-01-15T01:55:13.973Z,11.18
2023-01-15T01:57:43.429Z,10.32
2023-01-15T02:00:15.588Z,12.52
2023-01-15T02:02:48.195Z,10.80
2023-01-15T02:05:28.686Z,9.13
2023-01-15T02:07:57.768Z,9.30
2023-01-15T02:10:26.119Z,12.15
2023-01-15T02:13:02.174Z,8.38
2023-01-15T02:15:36.125Z,8.93
2023-01-15T02:18:12.036Z,10.43
2023-01-15T02:20:46.762Z,7.28
2023-01-15T02:23:36.108Z,7.93
2023-01-15T02:26:20.753Z,8.68
2023-01-15T02:28:54.771Z,12.63
2023-01-15T02:31:27.863Z,8.40
2023-01-15T02:33:59.545Z,7.30
2023-01-15T02:36:31.895Z,10.70
2023-01-15T02:39:06.015Z,9.10
2023-01-15T02:41:38.552Z,7.88
2023-01-15T02:44:11.115Z,11.10
2023-01-15T02:46:41.733Z,8.88
2023-01-15T02:49:14.995Z,10.15
2023-01-15T02:51:49.404Z,9.20
2023-01-15T02:54:24.244Z,8.27
2023-01-15T02:56:55.565Z,9.18
2023-01-15T02:59:30.723Z,9.40
2023-01-15T03:02:02.523Z,10.70
2023-01-15T03:04:34.755Z,7.95
2023-01-15T03:07:08.115Z,7.32
2023-01-15T03:09:38.731Z,8.15
2023-01-15T03:12:15.237Z,9.05
2023-01-15T03:14:53.336Z,7.65
2023-01-15T03:17:24.844Z,8.05
2023-01-15T03:19:58.479Z,8.27
2023-01-15T03:22:31.540Z,8.45
2023-01-15T03:25:04.183Z,8.20
2023-01-15T03:30:09.839Z,9.90
2023-01-15T03:32:39.506Z,9.43
2023-01-15T03:35:28.939Z,8.30
2023-01-15T03:37:57.609Z,7.80
2023-01-15T03:40:26.052Z,8.80
2023-01-15T03:43:19.727Z,8.93
2023-01-15T03:45:55.553Z,8.93
2023-01-15T03:48:31.423Z,8.57
2023-01-15T03:51:06.659Z,7.93
2023-01-15T03:53:40.863Z,7.85
2023-01-15T03:56:15.360Z,7.88
2023-01-15T03:58:52.693Z,8.75
2023-01-15T04:01:34.546Z,9.77
2023-01-15T04:04:04.037Z,10.20
2023-01-15T04:06:35.144Z,8.10
2023-01-15T04:09:07.470Z,6.00
2023-01-15T04:11:35.748Z,7.25
2023-01-15T04:14:07.273Z,6.80
2023-01-15T04:16:45.685Z,6.85
2023-01-15T04:19:14.466Z,8.65
2023-01-15T04:21:58.867Z,7.57
2023-01-15T04:24:27.104Z,7.63
2023-01-15T04:26:54.970Z,6.93
2023-01-15T04:29:23.136Z,6.45
2023-01-15T04:31:57.594Z,7.65
2023-01-15T04:34:26.891Z,8.82
2023-01-15T04:36:54.823Z,10.02
2023-01-15T04:39:22.806Z,7.13
2023-01-15T04:42:09.072Z,10.43
2023-01-15T04:44:38.033Z,7.47
2023-01-15T04:47:07.674Z,6.82
2023-01-15T04:49:35.988Z,7.68
2023-01-15T04:52:04.222Z,7.40
2023-01-15T04:54:32.185Z,6.80
2023-01-15T04:57:00.056Z,8.38
2023-01-15T04:59:28.365Z,7.05
2023-01-15T05:02:06.330Z,8.18
2023-01-15T05:04:36.877Z,5.50
2023-01-15T05:07:05.523Z,7.45
2023-01-15T05:09:33.805Z,8.20
2023-01-15T05:12:01.838Z,6.40
2023-01-15T05:14:30.396Z,5.90
2023-01-15T05:16:58.328Z,5.18
2023-01-15T05:19:26.183Z,5.63
2023-01-15T05:21:55.984Z,5.47
2023-01-15T05:24:24.298Z,6.15
2023-01-15T05:26:52.310Z,6.15
2023-01-15T05:29:20.133Z,7.35
2023-01-15T05:31:48.159Z,7.13
2023-01-15T05:34:16.101Z,6.00
2023-01-15T05:36:44.224Z,6.13
2023-01-15T05:39:13.609Z,5.57
2023-01-15T05:41:50.516Z,8.98
2023-01-15T05:44:21.714Z,10.80
2023-01-15T05:46:50.795Z,7.72
2023-01-15T05:49:19.937Z,6.03
2023-01-15T05:51:48.799Z,5.20
2023-01-15T05:54:20.073Z,6.53
2023-01-15T05:56:49.403Z,7.32
2023-01-15T05:59:19.272Z,7.28
2023-01-15T06:01:47.376Z,7.45
2023-01-15T06:04:15.474Z,5.85
2023-01-15T06:06:43.971Z,5.00
2023-01-15T06:09:11.789Z,4.00
2023-01-15T06:11:41.695Z,7.15
2023-01-15T06:14:10.902Z,6.78
2023-01-15T06:16:41.014Z,7.22
2023-01-15T06:19:12.534Z,6.15
2023-01-15T06:21:41.200Z,6.28
2023-01-15T06:24:09.858Z,5.82
2023-01-15T06:26:39.570Z,7.55
2023-01-15T06:29:09.232Z,7.10
2023-01-15T06:31:37.349Z,4.53
2023-01-15T06:34:05.356Z,6.50
2023-01-15T06:36:33.284Z,5.20
2023-01-15T06:39:01.192Z,4.78
2023-01-15T06:41:47.550Z,7.00
2023-01-15T06:44:37.400Z,6.68
2023-01-15T06:47:23.651Z,9.18
2023-01-15T06:49:54.627Z,7.70
2023-01-15T06:52:23.032Z,7.18
2023-01-15T06:54:51.057Z,6.68
2023-01-15T06:57:21.675Z,6.65
2023-01-15T06:59:51.296Z,6.75
2023-01-15T07:02:19.468Z,8.25
2023-01-15T07:04:48.095Z,8.05
2023-01-15T07:07:16.136Z,8.25
2023-01-15T07:09:43.935Z,10.02
2023-01-15T07:12:11.807Z,7.60
2023-01-15T07:14:39.595Z,5.72
2023-01-15T07:17:09.475Z,6.78
2023-01-15T07:19:38.263Z,7.63
2023-01-15T07:22:06.211Z,7.78
2023-01-15T07:24:34.049Z,6.15
2023-01-15T07:27:01.891Z,5.68
2023-01-15T07:29:31.466Z,4.53
2023-01-15T07:31:59.424Z,7.55
2023-01-15T07:34:28.824Z,5.63
2023-01-15T07:36:56.574Z,6.50
2023-01-15T07:39:24.693Z,6.07
2023-01-15T07:42:10.970Z,6.88
2023-01-15T07:44:57.040Z,7.15
2023-01-15T07:47:44.971Z,6.57
2023-01-15T07:50:17.366Z,4.72
2023-01-15T07:52:45.477Z,6.95
2023-01-15T07:55:13.741Z,8.10
2023-01-15T07:57:42.392Z,5.95
2023-01-15T08:00:12.661Z,7.38
2023-01-15T08:02:40.635Z,6.20
2023-01-15T08:05:09.743Z,9.05
2023-01-15T08:07:41.036Z,5.72
2023-01-15T08:10:10.734Z,5.50
2023-01-15T08:12:57.733Z,5.65
2023-01-15T08:17:53.649Z,5.75
2023-01-15T08:20:26.393Z,4.68
2023-01-15T08:22:56.103Z,4.47
2023-01-15T08:25:26.164Z,4.55
2023-01-15T08:27:54.570Z,5.15
2023-01-15T08:30:24.405Z,7.63
2023-01-15T08:32:52.685Z,5.82
2023-01-15T08:35:20.822Z,6.45
2023-01-15T08:37:49.202Z,6.53
2023-01-15T08:40:19.238Z,7.60
2023-01-15T08:42:47.511Z,11.88
2023-01-15T08:45:15.748Z,7.32
2023-01-15T08:47:44.126Z,7.22
2023-01-15T08:50:13.061Z,8.18
2023-01-15T08:52:41.821Z,5.95
2023-01-15T08:55:10.229Z,6.32
2023-01-15T08:57:40.005Z,5.30
2023-01-15T09:00:09.463Z,6.25
2023-01-15T09:02:37.603Z,6.78
2023-01-15T09:05:06.611Z,8.10
2023-01-15T09:07:35.710Z,6.20
2023-01-15T09:10:04.906Z,6.07
2023-01-15T09:12:33.142Z,7.28
2023-01-15T09:15:03.533Z,6.32
2023-01-15T09:17:33.350Z,9.82
2023-01-15T09:20:03.399Z,15.70
2023-01-15T09:22:31.922Z,10.98
2023-01-15T09:25:00.197Z,12.70
2023-01-15T09:27:28.992Z,9.00
2023-01-15T09:29:57.414Z,10.82
2023-01-15T09:32:28.126Z,9.63
2023-01-15T09:34:56.491Z,8.77
2023-01-15T09:37:24.563Z,9.48
2023-01-15T09:39:52.787Z,8.45
2023-01-15T09:42:38.964Z,10.13
2023-01-15T09:45:22.890Z,10.35
2023-01-15T09:48:19.051Z,8.50
2023-01-15T09:50:58.351Z,7.72
2023-01-15T09:53:42.881Z,11.98
2023-01-15T09:56:24.031Z,6.90
2023-01-15T09:58:53.613Z,6.10
2023-01-15T10:01:27.502Z,6.63
2023-01-15T10:04:05.685Z,5.93
2023-01-15T10:06:42.238Z,10.13
2023-01-15T10:09:15.292Z,8.00
2023-01-15T10:12:05.480Z,7.30
2023-01-15T10:14:39.812Z,7.63
2023-01-15T10:17:19.875Z,8.35
2023-01-15T10:19:49.750Z,9.40
2023-01-15T10:22:33.378Z,10.43
2023-01-15T10:25:04.756Z,7.03
2023-01-15T10:27:33.662Z,7.03
2023-01-15T10:30:06.942Z,8.45
2023-01-15T10:33:01.030Z,8.57
2023-01-15T10:35:44.213Z,9.68
2023-01-15T10:38:20.533Z,10.85
2023-01-15T10:41:23.152Z,7.63
2023-01-15T10:43:57.800Z,7.13
2023-01-15T10:46:33.807Z,9.77
2023-01-15T10:49:06.578Z,7.88
2023-01-15T10:51:42.297Z,8.23
2023-01-15T10:54:20.439Z,8.67
2023-01-15T10:56:56.613Z,9.15
2023-01-15T10:59:35.946Z,11.00
2023-01-15T11:02:14.585Z,7.93
2023-01-15T11:04:45.545Z,10.43
2023-01-15T11:07:15.385Z,7.80
2023-01-15T11:09:43.553Z,6.10
2023-01-15T11:12:21.025Z,7.82
2023-01-15T11:15:07.512Z,6.93
2023-01-15T11:18:00.293Z,19.15
2023-01-15T11:20:31.122Z,8.02
2023-01-15T11:23:09.652Z,5.63
2023-01-15T11:25:40.334Z,8.25
2023-01-15T11:28:10.216Z,8.38
2023-01-15T11:30:38.725Z,13.35
2023-01-15T11:33:29.985Z,8.68
2023-01-15T11:36:00.002Z,8.48
2023-01-15T11:38:30.889Z,7.40
2023-01-15T11:41:00.962Z,9.35
2023-01-15T11:43:48.683Z,9.15
2023-01-15T11:46:46.654Z,11.82
2023-01-15T11:49:36.747Z,7.13
2023-01-15T11:52:08.695Z,12.18
2023-01-15T11:54:41.995Z,10.27
2023-01-15T11:57:12.182Z,9.60
2023-01-15T11:59:40.635Z,10.90
2023-01-15T12:02:21.776Z,10.93
2023-01-15T12:04:58.672Z,8.93
2023-01-15T12:07:27.246Z,10.75
2023-01-15T12:10:21.282Z,11.15
2023-01-15T12:13:08.519Z,9.93
2023-01-15T12:15:51.832Z,8.88
2023-01-15T12:19:04.125Z,11.20
2023-01-15T12:22:02.959Z,8.23
2023-01-15T12:25:21.934Z,11.32
2023-01-15T12:28:04.907Z,8.45
2023-01-15T12:30:40.045Z,8.48
2023-01-15T12:33:20.120Z,8.68
2023-01-15T12:35:57.158Z,7.43
2023-01-15T12:38:40.087Z,8.40
2023-01-15T12:41:12.394Z,7.35
2023-01-15T12:44:08.614Z,7.68
2023-01-15T12:46:40.011Z,8.30
2023-01-15T12:49:16.728Z,12.60
2023-01-15T12:51:50.529Z,11.05
2023-01-15T12:54:24.474Z,8.85
2023-01-15T12:57:02.641Z,7.53
2023-01-15T12:59:38.019Z,8.00
2023-01-15T13:02:20.608Z,7.07
2023-01-15T13:04:52.049Z,11.70
2023-01-15T13:07:27.419Z,9.05
2023-01-15T13:10:01.928Z,10.38
2023-01-15T13:12:31.567Z,19.75
2023-01-15T13:15:02.951Z,12.52
2023-01-15T13:17:39.723Z,12.23
2023-01-15T13:22:54.021Z,11.80
2023-01-15T13:25:55.106Z,16.05
2023-01-15T13:28:47.496Z,17.42
2023-01-15T13:31:36.517Z,16.15
2023-01-15T13:34:13.365Z,17.45
2023-01-15T13:36:45.699Z,13.60
2023-01-15T13:39:19.401Z,11.40
2023-01-15T13:42:09.385Z,11.95
2023-01-15T13:44:40.526Z,10.13
2023-01-15T13:47:14.018Z,9.50
2023-01-15T13:49:48.857Z,9.90
2023-01-15T13:52:25.283Z,9.52
2023-01-15T13:54:55.511Z,10.52
2023-01-15T13:57:26.348Z,13.30
2023-01-15T13:59:54.435Z,12.95
2023-01-15T14:02:29.001Z,12.75
2023-01-15T14:04:57.795Z,12.27
2023-01-15T14:07:35.075Z,10.63
2023-01-15T14:10:11.414Z,16.10
2023-01-15T14:12:50.226Z,11.60
2023-01-15T14:15:38.334Z,14.10
2023-01-15T14:18:35.214Z,12.38
2023-01-15T14:21:20.020Z,23.60
2023-01-15T14:24:16.942Z,16.10
2023-01-15T14:26:53.900Z,16.38
2023-01-15T14:29:53.479Z,15.98
2023-01-15T14:32:32.029Z,13.38
2023-01-15T14:35:03.307Z,12.32
2023-01-15T14:37:35.851Z,12.27
2023-01-15T14:40:05.775Z,12.02
2023-01-15T14:42:56.825Z,15.40
2023-01-15T14:45:28.266Z,14.25
2023-01-15T14:47:58.117Z,14.88
2023-01-15T14:50:39.973Z,10.95
2023-01-15T14:53:23.988Z,12.60
2023-01-15T14:55:59.094Z,13.15
2023-01-15T14:58:38.035Z,11.85
2023-01-15T15:01:19.253Z,14.05
2023-01-15T15:03:53.018Z,11.52
2023-01-15T15:06:22.766Z,10.93
2023-01-15T15:08:52.753Z,14.10
2023-01-15T15:11:46.152Z,14.15
2023-01-15T15:14:18.436Z,13.93
2023-01-15T15:16:51.060Z,13.05
2023-01-15T15:19:41.884Z,17.02
2023-01-15T15:22:16.263Z,13.48
2023-01-15T15:24:48.442Z,15.80
2023-01-15T15:27:17.632Z,13.57
2023-01-15T15:29:45.984Z,15.73
2023-01-15T15:32:17.520Z,20.67
2023-01-15T15:34:48.647Z,20.65
2023-01-15T15:37:19.995Z,27.92
2023-01-15T15:39:56.685Z,28.15
2023-01-15T15:42:48.959Z,23.13
2023-01-15T15:45:37.778Z,22.27
2023-01-15T15:48:32.850Z,19.77
2023-01-15T15:51:01.275Z,17.00
2023-01-15T15:53:31.042Z,16.33
2023-01-15T15:56:01.076Z,20.13
2023-01-15T15:58:33.721Z,17.75
2023-01-15T16:01:02.993Z,23.48
2023-01-15T16:03:33.477Z,19.17
2023-01-15T16:06:03.407Z,20.63
2023-01-15T16:08:34.709Z,22.42
2023-01-15T16:11:05.965Z,21.90
2023-01-15T16:13:38.732Z,18.77
2023-01-15T16:16:08.980Z,19.65
2023-01-15T16:18:44.560Z,18.40
2023-01-15T16:21:17.582Z,17.33
2023-01-15T16:23:56.324Z,44.70
2023-01-15T16:26:33.468Z,24.63
2023-01-15T16:29:04.554Z,23.27
2023-01-15T16:31:37.036Z,18.70
2023-01-15T16:34:06.725Z,23.45
2023-01-15T16:36:40.812Z,23.42
2023-01-15T16:39:21.311Z,45.75
2023-01-15T16:41:50.432Z,53.83
2023-01-15T16:44:28.030Z,64.22
2023-01-15T16:46:59.433Z,54.13
2023-01-15T16:49:30.468Z,35.88
2023-01-15T16:51:59.432Z,33.35
2023-01-15T16:54:45.928Z,30.55
2023-01-15T16:57:32.627Z,25.23
2023-01-15T17:00:05.821Z,26.85
2023-01-15T17:02:51.871Z,20.95
2023-01-15T17:05:25.793Z,21.15
2023-01-15T17:07:55.257Z,22.02
2023-01-15T17:10:32.103Z,21.23
2023-01-15T17:13:00.510Z,21.02
2023-01-15T17:15:39.804Z,18.27
2023-01-15T17:18:28.645Z,20.80
2023-01-15T17:20:57.832Z,23.40
2023-01-15T17:23:41.122Z,24.08
2023-01-15T17:26:16.042Z,26.08
2023-01-15T17:28:45.929Z,25.60
2023-01-15T17:31:23.952Z,22.23
2023-01-15T17:33:52.942Z,25.02
2023-01-15T17:36:21.460Z,20.20
2023-01-15T17:38:50.335Z,23.98
2023-01-15T17:41:21.961Z,26.23
2023-01-15T17:43:51.704Z,19.73
2023-01-15T17:46:19.945Z,21.52
2023-01-15T17:48:48.246Z,22.38
2023-01-15T17:51:17.276Z,20.95
2023-01-15T17:53:45.417Z,26.27
2023-01-15T17:56:31.984Z,20.27
2023-01-15T17:59:19.925Z,24.92
2023-01-15T18:02:07.165Z,25.02
2023-01-15T18:04:58.524Z,24.83
2023-01-15T18:07:34.017Z,24.17
2023-01-15T18:10:02.620Z,24.92
2023-01-15T18:12:31.411Z,26.90
2023-01-15T18:15:01.716Z,27.70
2023-01-15T18:17:31.955Z,27.63
2023-01-15T18:20:00.275Z,28.42
2023-01-15T18:22:30.147Z,25.17
2023-01-15T18:24:58.431Z,24.67
2023-01-15T18:27:30.382Z,23.35
2023-01-15T18:30:01.006Z,21.40
2023-01-15T18:32:33.539Z,23.35
2023-01-15T18:35:01.878Z,23.65
2023-01-15T18:37:30.037Z,26.38
2023-01-15T18:39:58.353Z,23.17
2023-01-15T18:42:45.128Z,22.95
2023-01-15T18:45:33.506Z,23.75
2023-01-15T18:48:02.827Z,28.95
2023-01-15T18:50:31.610Z,35.92
2023-01-15T18:53:00.567Z,29.27
2023-01-15T18:58:12.585Z,27.48
2023-01-15T19:00:42.339Z,26.05
2023-01-15T19:03:10.623Z,28.70
2023-01-15T19:05:39.195Z,27.38
2023-01-15T19:08:08.340Z,36.00
2023-01-15T19:10:36.466Z,37.15
2023-01-15T19:13:05.874Z,32.55
2023-01-15T19:15:54.265Z,33.03
2023-01-15T19:18:41.867Z,28.40
2023-01-15T19:21:12.390Z,33.75
2023-01-15T19:23:41.157Z,30.23
2023-01-15T19:26:09.332Z,26.15
2023-01-15T19:28:37.862Z,28.52
2023-01-15T19:31:27.458Z,31.85
2023-01-15T19:34:13.131Z,27.73
2023-01-15T19:36:46.901Z,25.45
2023-01-15T19:39:17.480Z,27.60
2023-01-15T19:42:04.680Z,29.00
2023-01-15T19:44:51.360Z,30.58
2023-01-15T19:48:04.389Z,31.65
2023-01-15T19:50:36.825Z,25.40
2023-01-15T19:53:10.467Z,30.95
2023-01-15T19:55:40.804Z,30.80
2023-01-15T19:58:12.110Z,30.05
2023-01-15T20:00:42.759Z,24.48
2023-01-15T20:03:13.155Z,24.85
2023-01-15T20:05:44.233Z,27.48
2023-01-15T20:08:17.398Z,26.88
2023-01-15T20:10:48.815Z,31.65
2023-01-15T20:13:38.264Z,29.50
2023-01-15T20:16:09.084Z,33.58
2023-01-15T20:18:38.041Z,26.40
2023-01-15T20:21:07.923Z,27.85
2023-01-15T20:23:37.007Z,25.45
2023-01-15T20:26:07.210Z,28.55
2023-01-15T20:28:36.402Z,24.88
2023-01-15T20:31:04.419Z,40.72
2023-01-15T20:33:32.780Z,28.45
2023-01-15T20:36:04.184Z,25.20
2023-01-15T20:38:33.877Z,32.15
2023-01-15T20:42:09.551Z,28.75
2023-01-15T20:44:56.268Z,24.73
2023-01-15T20:47:48.027Z,25.52
2023-01-15T20:50:18.380Z,26.23
2023-01-15T20:52:48.061Z,24.88
2023-01-15T20:55:18.386Z,28.52
2023-01-15T20:57:47.547Z,25.05
2023-01-15T21:00:17.864Z,27.83
2023-01-15T21:02:46.340Z,26.55
2023-01-15T21:05:15.515Z,26.83
2023-01-15T21:07:44.199Z,22.55
2023-01-15T21:10:14.405Z,26.05
2023-01-15T21:12:44.377Z,23.38
2023-01-15T21:15:13.168Z,27.17
2023-01-15T21:17:41.565Z,22.58
2023-01-15T21:20:12.904Z,23.63
2023-01-15T21:22:41.208Z,26.13
2023-01-15T21:25:10.480Z,28.65
2023-01-15T21:27:39.451Z,28.30
2023-01-15T21:30:11.113Z,31.90
2023-01-15T21:32:39.384Z,22.90
2023-01-15T21:35:08.108Z,26.92
2023-01-15T21:37:36.271Z,24.10
2023-01-15T21:40:04.829Z,23.13
2023-01-15T21:42:52.248Z,22.83
2023-01-15T21:45:22.748Z,23.63
2023-01-15T21:47:51.431Z,24.50
2023-01-15T21:50:20.614Z,24.75
2023-01-15T21:52:48.924Z,22.98
2023-01-15T21:55:16.973Z,23.10
2023-01-15T21:57:45.133Z,21.60
2023-01-15T22:00:14.215Z,20.85
2023-01-15T22:02:43.910Z,24.33
2023-01-15T22:05:12.196Z,24.92
2023-01-15T22:07:40.564Z,22.73
2023-01-15T22:10:09.948Z,24.92
2023-01-15T22:12:42.423Z,24.40
2023-01-15T22:15:11.755Z,23.35
2023-01-15T22:17:39.758Z,22.98
2023-01-15T22:20:12.758Z,23.45
2023-01-15T22:22:40.996Z,21.45
2023-01-15T22:25:12.067Z,23.48
2023-01-15T22:27:42.060Z,26.23
2023-01-15T22:30:12.774Z,22.52
2023-01-15T22:32:40.856Z,20.42
2023-01-15T22:35:11.026Z,19.80
2023-01-15T22:37:39.095Z,20.05
2023-01-15T22:40:08.531Z,24.92
2023-01-15T22:42:36.553Z,28.00
2023-01-15T22:45:04.953Z,27.98
2023-01-15T22:47:32.935Z,27.40
2023-01-15T22:50:01.143Z,30.42
2023-01-15T22:52:30.732Z,24.85
2023-01-15T22:54:58.941Z,28.83
2023-01-15T22:57:27.394Z,22.33
2023-01-15T22:59:55.549Z,24.35
2023-01-15T23:02:43.737Z,25.92
2023-01-15T23:05:12.438Z,23.35
2023-01-15T23:07:41.951Z,21.23
2023-01-15T23:10:11.713Z,21.88
2023-01-15T23:12:39.803Z,19.83
2023-01-15T23:15:09.446Z,18.67
2023-01-15T23:17:37.482Z,19.23
2023-01-15T23:20:06.728Z,9.82
2023-01-15T23:22:34.938Z,12.25
2023-01-15T23:25:05.411Z,13.65
2023-01-15T23:27:33.445Z,12.85
2023-01-15T23:30:01.766Z,10.40
2023-01-15T23:32:29.892Z,11.65
2023-01-15T23:34:57.932Z,10.70
2023-01-15T23:37:25.917Z,9.18
2023-01-15T23:39:53.743Z,6.95
2023-01-15T23:42:44.593Z,9.45
2023-01-15T23:45:31.228Z,7.30
2023-01-15T23:47:59.342Z,6.45
2023-01-15T23:50:27.423Z,11.55
2023-01-15T23:52:55.493Z,8.18
2023-01-15T23:55:23.543Z,13.00
2023-01-15T23:57:53.071Z,9.80
